sensor_id;sensor_type;location;lat;lon;timestamp;P1;durP1;ratioP1;P2;durP2;ratioP2
14907;SDS011;7545;52.092;7.006;2024-03-02T00:02:10;3.20;;;1.70;;
14907;SDS011;7545;52.092;7.006;2024-03-02T00:04:36;1.50;;;1.30;;
14907;SDS011;7545;52.092;7.006;2024-03-02T00:07:02;2.03;;;1.47;;
14907;SDS011;7545;52.092;7.006;2024-03-02T00:09:28;2.23;;;1.40;;
14907;SDS011;7545;52.092;7.006;2024-03-02T00:11:54;2.20;;;1.27;;
14907;SDS011;7545;52.092;7.006;2024-03-02T00:14:20;2.03;;;1.37;;
14907;SDS011;7545;52.092;7.006;2024-03-02T00:16:46;2.00;;;1.60;;
14907;SDS011;7545;52.092;7.006;2024-03-02T00:19:11;2.20;;;1.20;;
14907;SDS011;7545;52.092;7.006;2024-03-02T00:21:37;2.40;;;1.80;;
14907;SDS011;7545;52.092;7.006;2024-03-02T00:24:07;3.42;;;1.65;;
14907;SDS011;7545;52.092;7.006;2024-03-02T00:26:47;2.73;;;1.57;;
14907;SDS011;7545;52.092;7.006;2024-03-02T00:29:14;2.70;;;1.80;;
14907;SDS011;7545;52.092;7.006;2024-03-02T00:31:43;2.30;;;1.63;;
14907;SDS011;7545;52.092;7.006;2024-03-02T00:34:08;1.60;;;1.50;;
14907;SDS011;7545;52.092;7.006;2024-03-02T00:36:37;1.40;;;1.20;;
14907;SDS011;7545;52.092;7.006;2024-03-02T00:39:03;1.83;;;1.43;;
14907;SDS011;7545;52.092;7.006;2024-03-02T00:41:32;3.10;;;1.50;;
14907;SDS011;7545;52.092;7.006;2024-03-02T00:44:06;1.70;;;1.48;;
14907;SDS011;7545;52.092;7.006;2024-03-02T00:46:35;2.20;;;1.43;;
14907;SDS011;7545;52.092;7.006;2024-03-02T00:49:03;1.60;;;1.50;;
14907;SDS011;7545;52.092;7.006;2024-03-02T00:51:30;1.80;;;1.23;;
14907;SDS011;7545;52.092;7.006;2024-03-02T00:54:00;4.05;;;1.50;;
14907;SDS011;7545;52.092;7.006;2024-03-02T00:56:29;1.85;;;1.67;;
14907;SDS011;7545;52.092;7.006;2024-03-02T00:58:55;2.87;;;1.50;;
14907;SDS011;7545;52.092;7.006;2024-03-02T01:01:21;2.83;;;1.53;;
14907;SDS011;7545;52.092;7.006;2024-03-02T01:03:47;2.58;;;1.52;;
14907;SDS011;7545;52.092;7.006;2024-03-02T01:06:14;2.38;;;1.60;;
14907;SDS011;7545;52.092;7.006;2024-03-02T01:08:42;2.40;;;1.27;;
14907;SDS011;7545;52.092;7.006;2024-03-02T01:11:08;4.10;;;1.25;;
14907;SDS011;7545;52.092;7.006;2024-03-02T01:13:34;2.73;;;1.40;;
14907;SDS011;7545;52.092;7.006;2024-03-02T01:16:00;1.47;;;1.30;;
14907;SDS011;7545;52.092;7.006;2024-03-02T01:18:26;1.98;;;1.40;;
14907;SDS011;7545;52.092;7.006;2024-03-02T01:20:52;2.72;;;1.55;;
14907;SDS011;7545;52.092;7.006;2024-03-02T01:23:20;1.55;;;1.23;;
14907;SDS011;7545;52.092;7.006;2024-03-02T01:25:49;2.13;;;1.40;;
14907;SDS011;7545;52.092;7.006;2024-03-02T01:28:15;2.33;;;1.30;;
14907;SDS011;7545;52.092;7.006;2024-03-02T01:30:41;2.35;;;1.58;;
14907;SDS011;7545;52.092;7.006;2024-03-02T01:33:07;1.83;;;1.33;;
14907;SDS011;7545;52.092;7.006;2024-03-02T01:35:32;2.15;;;1.50;;
14907;SDS011;7545;52.092;7.006;2024-03-02T01:37:58;3.75;;;1.48;;
14907;SDS011;7545;52.092;7.006;2024-03-02T01:40:24;2.13;;;1.60;;
14907;SDS011;7545;52.092;7.006;2024-03-02T01:42:51;1.67;;;1.43;;
14907;SDS011;7545;52.092;7.006;2024-03-02T01:45:17;4.03;;;1.60;;
14907;SDS011;7545;52.092;7.006;2024-03-02T01:47:43;1.80;;;1.23;;
14907;SDS011;7545;52.092;7.006;2024-03-02T01:50:09;2.40;;;1.33;;
14907;SDS011;7545;52.092;7.006;2024-03-02T01:52:36;1.40;;;1.10;;
14907;SDS011;7545;52.092;7.006;2024-03-02T01:55:02;1.93;;;1.40;;
14907;SDS011;7545;52.092;7.006;2024-03-02T01:57:28;1.63;;;1.30;;
14907;SDS011;7545;52.092;7.006;2024-03-02T01:59:54;2.20;;;1.53;;
14907;SDS011;7545;52.092;7.006;2024-03-02T02:02:20;1.95;;;1.50;;
14907;SDS011;7545;52.092;7.006;2024-03-02T02:04:46;2.07;;;1.63;;
14907;SDS011;7545;52.092;7.006;2024-03-02T02:07:12;1.87;;;1.30;;
14907;SDS011;7545;52.092;7.006;2024-03-02T02:09:39;1.27;;;1.03;;
14907;SDS011;7545;52.092;7.006;2024-03-02T02:12:06;2.20;;;1.67;;
14907;SDS011;7545;52.092;7.006;2024-03-02T02:14:32;2.97;;;1.50;;
14907;SDS011;7545;52.092;7.006;2024-03-02T02:16:58;2.70;;;1.57;;
14907;SDS011;7545;52.092;7.006;2024-03-02T02:19:24;1.87;;;1.50;;
14907;SDS011;7545;52.092;7.006;2024-03-02T02:21:50;2.03;;;1.30;;
14907;SDS011;7545;52.092;7.006;2024-03-02T02:24:15;1.60;;;1.30;;
14907;SDS011;7545;52.092;7.006;2024-03-02T02:26:41;1.37;;;1.17;;
14907;SDS011;7545;52.092;7.006;2024-03-02T02:29:06;1.50;;;1.10;;
14907;SDS011;7545;52.092;7.006;2024-03-02T02:31:39;1.30;;;1.00;;
14907;SDS011;7545;52.092;7.006;2024-03-02T02:34:05;2.03;;;1.40;;
14907;SDS011;7545;52.092;7.006;2024-03-02T02:36:31;1.60;;;1.23;;
14907;SDS011;7545;52.092;7.006;2024-03-02T02:39:02;3.63;;;1.90;;
14907;SDS011;7545;52.092;7.006;2024-03-02T02:41:29;2.27;;;1.37;;
14907;SDS011;7545;52.092;7.006;2024-03-02T02:43:55;1.13;;;0.90;;
14907;SDS011;7545;52.092;7.006;2024-03-02T02:46:21;2.10;;;1.30;;
14907;SDS011;7545;52.092;7.006;2024-03-02T02:48:46;1.57;;;1.00;;
14907;SDS011;7545;52.092;7.006;2024-03-02T02:51:12;1.90;;;1.30;;
14907;SDS011;7545;52.092;7.006;2024-03-02T02:53:37;1.85;;;1.30;;
14907;SDS011;7545;52.092;7.006;2024-03-02T02:56:05;3.42;;;1.15;;
14907;SDS011;7545;52.092;7.006;2024-03-02T02:58:31;1.40;;;1.20;;
14907;SDS011;7545;52.092;7.006;2024-03-02T03:00:57;1.63;;;1.23;;
14907;SDS011;7545;52.092;7.006;2024-03-02T03:03:23;2.22;;;1.30;;
14907;SDS011;7545;52.092;7.006;2024-03-02T03:05:48;1.53;;;1.20;;
14907;SDS011;7545;52.092;7.006;2024-03-02T03:08:14;1.97;;;1.40;;
14907;SDS011;7545;52.092;7.006;2024-03-02T03:10:41;2.97;;;1.03;;
14907;SDS011;7545;52.092;7.006;2024-03-02T03:13:06;2.07;;;1.30;;
14907;SDS011;7545;52.092;7.006;2024-03-02T03:15:35;2.97;;;1.77;;
14907;SDS011;7545;52.092;7.006;2024-03-02T03:18:04;2.60;;;1.00;;
14907;SDS011;7545;52.092;7.006;2024-03-02T03:20:30;1.97;;;1.17;;
14907;SDS011;7545;52.092;7.006;2024-03-02T03:22:56;2.50;;;1.30;;
14907;SDS011;7545;52.092;7.006;2024-03-02T03:25:22;1.50;;;0.93;;
14907;SDS011;7545;52.092;7.006;2024-03-02T03:27:48;1.53;;;1.13;;
14907;SDS011;7545;52.092;7.006;2024-03-02T03:30:13;1.63;;;0.90;;
14907;SDS011;7545;52.092;7.006;2024-03-02T03:32:39;2.23;;;1.20;;
14907;SDS011;7545;52.092;7.006;2024-03-02T03:35:05;1.77;;;0.97;;
14907;SDS011;7545;52.092;7.006;2024-03-02T03:37:31;2.10;;;1.15;;
14907;SDS011;7545;52.092;7.006;2024-03-02T03:39:58;1.30;;;1.00;;
14907;SDS011;7545;52.092;7.006;2024-03-02T03:42:24;1.73;;;0.93;;
14907;SDS011;7545;52.092;7.006;2024-03-02T03:44:50;2.23;;;1.33;;
14907;SDS011;7545;52.092;7.006;2024-03-02T03:47:15;1.40;;;1.13;;
14907;SDS011;7545;52.092;7.006;2024-03-02T03:49:41;1.33;;;0.90;;
14907;SDS011;7545;52.092;7.006;2024-03-02T03:52:06;1.50;;;1.00;;
14907;SDS011;7545;52.092;7.006;2024-03-02T03:54:32;2.27;;;1.00;;
14907;SDS011;7545;52.092;7.006;2024-03-02T03:56:57;2.13;;;1.07;;
14907;SDS011;7545;52.092;7.006;2024-03-02T03:59:23;2.20;;;1.63;;
14907;SDS011;7545;52.092;7.006;2024-03-02T04:01:49;1.47;;;1.17;;
14907;SDS011;7545;52.092;7.006;2024-03-02T04:04:14;2.23;;;1.33;;
14907;SDS011;7545;52.092;7.006;2024-03-02T04:06:40;1.93;;;1.10;;
14907;SDS011;7545;52.092;7.006;2024-03-02T04:09:05;1.67;;;1.13;;
14907;SDS011;7545;52.092;7.006;2024-03-02T04:11:31;2.03;;;0.97;;
14907;SDS011;7545;52.092;7.006;2024-03-02T04:13:56;1.10;;;1.00;;
14907;SDS011;7545;52.092;7.006;2024-03-02T04:16:22;1.83;;;1.30;;
14907;SDS011;7545;52.092;7.006;2024-03-02T04:18:48;1.77;;;1.00;;
14907;SDS011;7545;52.092;7.006;2024-03-02T04:21:13;1.60;;;1.08;;
14907;SDS011;7545;52.092;7.006;2024-03-02T04:23:39;1.07;;;0.80;;
14907;SDS011;7545;52.092;7.006;2024-03-02T04:26:04;3.97;;;1.97;;
14907;SDS011;7545;52.092;7.006;2024-03-02T04:28:30;2.40;;;1.13;;
14907;SDS011;7545;52.092;7.006;2024-03-02T04:30:55;1.73;;;0.90;;
14907;SDS011;7545;52.092;7.006;2024-03-02T04:33:21;3.77;;;1.30;;
14907;SDS011;7545;52.092;7.006;2024-03-02T04:35:47;2.67;;;1.25;;
14907;SDS011;7545;52.092;7.006;2024-03-02T04:38:12;1.20;;;1.10;;
14907;SDS011;7545;52.092;7.006;2024-03-02T04:40:38;1.67;;;1.07;;
14907;SDS011;7545;52.092;7.006;2024-03-02T04:43:03;1.10;;;1.00;;
14907;SDS011;7545;52.092;7.006;2024-03-02T04:45:29;1.47;;;1.10;;
14907;SDS011;7545;52.092;7.006;2024-03-02T04:47:55;1.53;;;0.97;;
14907;SDS011;7545;52.092;7.006;2024-03-02T04:50:20;1.40;;;0.80;;
14907;SDS011;7545;52.092;7.006;2024-03-02T04:52:46;1.93;;;1.50;;
14907;SDS011;7545;52.092;7.006;2024-03-02T04:55:11;2.27;;;1.30;;
14907;SDS011;7545;52.092;7.006;2024-03-02T04:57:43;2.00;;;1.17;;
14907;SDS011;7545;52.092;7.006;2024-03-02T05:00:09;3.00;;;0.97;;
14907;SDS011;7545;52.092;7.006;2024-03-02T05:02:35;4.43;;;1.50;;
14907;SDS011;7545;52.092;7.006;2024-03-02T05:05:01;1.90;;;0.90;;
14907;SDS011;7545;52.092;7.006;2024-03-02T05:07:27;1.57;;;1.07;;
14907;SDS011;7545;52.092;7.006;2024-03-02T05:09:53;1.30;;;1.20;;
14907;SDS011;7545;52.092;7.006;2024-03-02T05:12:19;1.67;;;0.80;;
14907;SDS011;7545;52.092;7.006;2024-03-02T05:15:03;3.27;;;0.90;;
14907;SDS011;7545;52.092;7.006;2024-03-02T05:17:29;3.23;;;1.63;;
14907;SDS011;7545;52.092;7.006;2024-03-02T05:19:55;2.10;;;1.17;;
14907;SDS011;7545;52.092;7.006;2024-03-02T05:22:20;2.50;;;1.40;;
14907;SDS011;7545;52.092;7.006;2024-03-02T05:24:46;2.83;;;1.80;;
14907;SDS011;7545;52.092;7.006;2024-03-02T05:27:11;3.50;;;2.47;;
14907;SDS011;7545;52.092;7.006;2024-03-02T05:29:37;2.80;;;1.97;;
14907;SDS011;7545;52.092;7.006;2024-03-02T05:32:02;3.73;;;2.40;;
14907;SDS011;7545;52.092;7.006;2024-03-02T05:34:28;5.00;;;2.07;;
14907;SDS011;7545;52.092;7.006;2024-03-02T05:36:55;3.23;;;1.77;;
14907;SDS011;7545;52.092;7.006;2024-03-02T05:39:22;5.20;;;2.00;;
14907;SDS011;7545;52.092;7.006;2024-03-02T05:41:48;2.80;;;1.87;;
14907;SDS011;7545;52.092;7.006;2024-03-02T05:44:13;3.47;;;1.53;;
14907;SDS011;7545;52.092;7.006;2024-03-02T05:46:40;1.90;;;1.27;;
14907;SDS011;7545;52.092;7.006;2024-03-02T05:49:06;2.53;;;1.43;;
14907;SDS011;7545;52.092;7.006;2024-03-02T05:51:33;3.27;;;1.77;;
14907;SDS011;7545;52.092;7.006;2024-03-02T05:53:58;4.73;;;2.10;;
14907;SDS011;7545;52.092;7.006;2024-03-02T05:56:24;3.67;;;2.40;;
14907;SDS011;7545;52.092;7.006;2024-03-02T05:58:49;4.37;;;2.50;;
14907;SDS011;7545;52.092;7.006;2024-03-02T06:01:33;2.93;;;1.73;;
14907;SDS011;7545;52.092;7.006;2024-03-02T06:03:59;2.23;;;1.30;;
14907;SDS011;7545;52.092;7.006;2024-03-02T06:06:25;2.30;;;1.47;;
14907;SDS011;7545;52.092;7.006;2024-03-02T06:08:51;4.27;;;1.90;;
14907;SDS011;7545;52.092;7.006;2024-03-02T06:11:17;3.30;;;2.10;;
14907;SDS011;7545;52.092;7.006;2024-03-02T06:13:44;6.30;;;2.07;;
14907;SDS011;7545;52.092;7.006;2024-03-02T06:16:09;4.93;;;2.30;;
14907;SDS011;7545;52.092;7.006;2024-03-02T06:18:35;3.70;;;1.57;;
14907;SDS011;7545;52.092;7.006;2024-03-02T06:21:01;3.33;;;1.80;;
14907;SDS011;7545;52.092;7.006;2024-03-02T06:23:26;2.73;;;1.60;;
14907;SDS011;7545;52.092;7.006;2024-03-02T06:25:52;3.37;;;1.60;;
14907;SDS011;7545;52.092;7.006;2024-03-02T06:28:18;2.20;;;1.50;;
14907;SDS011;7545;52.092;7.006;2024-03-02T06:30:43;2.33;;;1.50;;
14907;SDS011;7545;52.092;7.006;2024-03-02T06:33:10;3.90;;;1.67;;
14907;SDS011;7545;52.092;7.006;2024-03-02T06:35:36;3.57;;;1.87;;
14907;SDS011;7545;52.092;7.006;2024-03-02T06:38:01;2.63;;;1.63;;
14907;SDS011;7545;52.092;7.006;2024-03-02T06:40:27;4.43;;;1.77;;
14907;SDS011;7545;52.092;7.006;2024-03-02T06:42:53;2.97;;;1.80;;
14907;SDS011;7545;52.092;7.006;2024-03-02T06:45:18;6.27;;;2.13;;
14907;SDS011;7545;52.092;7.006;2024-03-02T06:47:44;3.27;;;1.60;;
14907;SDS011;7545;52.092;7.006;2024-03-02T06:50:10;1.97;;;1.47;;
14907;SDS011;7545;52.092;7.006;2024-03-02T06:52:36;3.03;;;1.80;;
14907;SDS011;7545;52.092;7.006;2024-03-02T06:55:02;3.53;;;2.40;;
14907;SDS011;7545;52.092;7.006;2024-03-02T06:57:29;2.87;;;2.30;;
14907;SDS011;7545;52.092;7.006;2024-03-02T06:59:55;5.30;;;2.60;;
14907;SDS011;7545;52.092;7.006;2024-03-02T07:02:23;2.80;;;1.90;;
14907;SDS011;7545;52.092;7.006;2024-03-02T07:04:52;6.47;;;2.33;;
14907;SDS011;7545;52.092;7.006;2024-03-02T07:07:18;3.97;;;1.83;;
14907;SDS011;7545;52.092;7.006;2024-03-02T07:09:44;5.30;;;2.27;;
14907;SDS011;7545;52.092;7.006;2024-03-02T07:12:09;3.67;;;2.20;;
14907;SDS011;7545;52.092;7.006;2024-03-02T07:14:35;8.27;;;3.07;;
14907;SDS011;7545;52.092;7.006;2024-03-02T07:17:23;4.33;;;2.37;;
14907;SDS011;7545;52.092;7.006;2024-03-02T07:19:49;6.73;;;3.57;;
14907;SDS011;7545;52.092;7.006;2024-03-02T07:22:15;7.37;;;3.80;;
14907;SDS011;7545;52.092;7.006;2024-03-02T07:24:41;9.80;;;4.03;;
14907;SDS011;7545;52.092;7.006;2024-03-02T07:27:08;12.10;;;4.87;;
14907;SDS011;7545;52.092;7.006;2024-03-02T07:29:34;8.87;;;4.07;;
14907;SDS011;7545;52.092;7.006;2024-03-02T07:32:00;6.40;;;3.57;;
14907;SDS011;7545;52.092;7.006;2024-03-02T07:34:25;4.83;;;2.90;;
14907;SDS011;7545;52.092;7.006;2024-03-02T07:36:51;6.43;;;2.90;;
14907;SDS011;7545;52.092;7.006;2024-03-02T07:39:16;4.10;;;2.60;;
14907;SDS011;7545;52.092;7.006;2024-03-02T07:41:42;4.00;;;2.30;;
14907;SDS011;7545;52.092;7.006;2024-03-02T07:44:08;3.17;;;1.63;;
14907;SDS011;7545;52.092;7.006;2024-03-02T07:46:34;2.73;;;1.80;;
14907;SDS011;7545;52.092;7.006;2024-03-02T07:49:00;2.47;;;1.40;;
14907;SDS011;7545;52.092;7.006;2024-03-02T07:51:25;2.43;;;1.40;;
14907;SDS011;7545;52.092;7.006;2024-03-02T07:53:51;2.27;;;1.20;;
14907;SDS011;7545;52.092;7.006;2024-03-02T07:56:16;2.80;;;1.17;;
14907;SDS011;7545;52.092;7.006;2024-03-02T07:58:47;2.80;;;1.20;;
14907;SDS011;7545;52.092;7.006;2024-03-02T08:01:15;2.70;;;1.47;;
14907;SDS011;7545;52.092;7.006;2024-03-02T08:03:42;1.87;;;1.40;;
14907;SDS011;7545;52.092;7.006;2024-03-02T08:06:12;2.40;;;1.43;;
14907;SDS011;7545;52.092;7.006;2024-03-02T08:08:47;2.10;;;1.20;;
14907;SDS011;7545;52.092;7.006;2024-03-02T08:11:12;2.00;;;1.50;;
14907;SDS011;7545;52.092;7.006;2024-03-02T08:13:38;5.03;;;2.00;;
14907;SDS011;7545;52.092;7.006;2024-03-02T08:16:04;1.93;;;1.77;;
14907;SDS011;7545;52.092;7.006;2024-03-02T08:18:32;3.37;;;1.80;;
14907;SDS011;7545;52.092;7.006;2024-03-02T08:20:58;2.37;;;1.63;;
14907;SDS011;7545;52.092;7.006;2024-03-02T08:23:24;2.70;;;1.03;;
14907;SDS011;7545;52.092;7.006;2024-03-02T08:25:49;3.57;;;1.63;;
14907;SDS011;7545;52.092;7.006;2024-03-02T08:28:15;3.87;;;1.57;;
14907;SDS011;7545;52.092;7.006;2024-03-02T08:30:40;2.80;;;1.60;;
14907;SDS011;7545;52.092;7.006;2024-03-02T08:33:06;1.33;;;1.00;;
14907;SDS011;7545;52.092;7.006;2024-03-02T08:35:31;2.60;;;1.30;;
14907;SDS011;7545;52.092;7.006;2024-03-02T08:38:01;1.75;;;1.30;;
14907;SDS011;7545;52.092;7.006;2024-03-02T08:40:27;3.70;;;1.20;;
14907;SDS011;7545;52.092;7.006;2024-03-02T08:42:53;1.80;;;1.30;;
14907;SDS011;7545;52.092;7.006;2024-03-02T08:45:19;2.07;;;1.40;;
14907;SDS011;7545;52.092;7.006;2024-03-02T08:47:45;1.73;;;1.25;;
14907;SDS011;7545;52.092;7.006;2024-03-02T08:50:11;2.67;;;1.63;;
14907;SDS011;7545;52.092;7.006;2024-03-02T08:52:37;1.97;;;1.40;;
14907;SDS011;7545;52.092;7.006;2024-03-02T08:55:02;1.75;;;1.23;;
14907;SDS011;7545;52.092;7.006;2024-03-02T08:57:28;1.50;;;1.23;;
14907;SDS011;7545;52.092;7.006;2024-03-02T08:59:54;2.50;;;1.50;;
14907;SDS011;7545;52.092;7.006;2024-03-02T09:02:19;3.17;;;1.13;;
14907;SDS011;7545;52.092;7.006;2024-03-02T09:04:45;2.00;;;1.38;;
14907;SDS011;7545;52.092;7.006;2024-03-02T09:07:10;3.25;;;1.30;;
14907;SDS011;7545;52.092;7.006;2024-03-02T09:09:36;1.42;;;1.25;;
14907;SDS011;7545;52.092;7.006;2024-03-02T09:12:04;1.55;;;1.30;;
14907;SDS011;7545;52.092;7.006;2024-03-02T09:14:30;2.78;;;1.40;;
14907;SDS011;7545;52.092;7.006;2024-03-02T09:16:56;3.10;;;1.77;;
14907;SDS011;7545;52.092;7.006;2024-03-02T09:19:21;3.15;;;1.80;;
14907;SDS011;7545;52.092;7.006;2024-03-02T09:21:47;1.50;;;1.35;;
14907;SDS011;7545;52.092;7.006;2024-03-02T09:24:12;1.92;;;1.60;;
14907;SDS011;7545;52.092;7.006;2024-03-02T09:26:38;2.13;;;1.63;;
14907;SDS011;7545;52.092;7.006;2024-03-02T09:29:03;1.58;;;1.13;;
14907;SDS011;7545;52.092;7.006;2024-03-02T09:31:29;1.58;;;1.13;;
14907;SDS011;7545;52.092;7.006;2024-03-02T09:33:54;1.27;;;1.10;;
14907;SDS011;7545;52.092;7.006;2024-03-02T09:36:20;2.58;;;1.40;;
14907;SDS011;7545;52.092;7.006;2024-03-02T09:38:47;2.88;;;1.27;;
14907;SDS011;7545;52.092;7.006;2024-03-02T09:41:13;0.95;;;0.80;;
14907;SDS011;7545;52.092;7.006;2024-03-02T09:43:39;1.73;;;1.10;;
14907;SDS011;7545;52.092;7.006;2024-03-02T09:46:06;3.15;;;1.05;;
14907;SDS011;7545;52.092;7.006;2024-03-02T09:48:34;3.33;;;1.35;;
14907;SDS011;7545;52.092;7.006;2024-03-02T09:51:00;2.25;;;0.85;;
14907;SDS011;7545;52.092;7.006;2024-03-02T09:53:28;0.95;;;0.80;;
14907;SDS011;7545;52.092;7.006;2024-03-02T09:55:57;2.55;;;0.95;;
14907;SDS011;7545;52.092;7.006;2024-03-02T09:58:24;0.98;;;0.70;;
14907;SDS011;7545;52.092;7.006;2024-03-02T10:00:49;1.30;;;0.77;;
14907;SDS011;7545;52.092;7.006;2024-03-02T10:03:15;2.00;;;0.80;;
14907;SDS011;7545;52.092;7.006;2024-03-02T10:05:43;1.52;;;0.73;;
14907;SDS011;7545;52.092;7.006;2024-03-02T10:08:08;1.25;;;0.60;;
14907;SDS011;7545;52.092;7.006;2024-03-02T10:10:38;2.55;;;1.00;;
14907;SDS011;7545;52.092;7.006;2024-03-02T10:13:09;1.45;;;0.88;;
14907;SDS011;7545;52.092;7.006;2024-03-02T10:15:36;1.55;;;0.88;;
14907;SDS011;7545;52.092;7.006;2024-03-02T10:18:03;2.85;;;1.00;;
14907;SDS011;7545;52.092;7.006;2024-03-02T10:20:29;1.80;;;0.90;;
14907;SDS011;7545;52.092;7.006;2024-03-02T10:22:55;1.05;;;0.93;;
14907;SDS011;7545;52.092;7.006;2024-03-02T10:25:29;1.92;;;0.88;;
14907;SDS011;7545;52.092;7.006;2024-03-02T10:27:58;1.20;;;0.63;;
14907;SDS011;7545;52.092;7.006;2024-03-02T10:30:27;1.30;;;0.80;;
14907;SDS011;7545;52.092;7.006;2024-03-02T10:32:56;1.05;;;0.63;;
14907;SDS011;7545;52.092;7.006;2024-03-02T10:35:22;1.42;;;0.80;;
14907;SDS011;7545;52.092;7.006;2024-03-02T10:37:51;1.75;;;0.85;;
14907;SDS011;7545;52.092;7.006;2024-03-02T10:40:18;1.15;;;0.82;;
14907;SDS011;7545;52.092;7.006;2024-03-02T10:42:46;1.27;;;0.80;;
14907;SDS011;7545;52.092;7.006;2024-03-02T10:45:12;1.52;;;0.80;;
14907;SDS011;7545;52.092;7.006;2024-03-02T10:47:41;1.35;;;0.80;;
14907;SDS011;7545;52.092;7.006;2024-03-02T10:50:08;1.92;;;0.90;;
14907;SDS011;7545;52.092;7.006;2024-03-02T10:52:42;1.48;;;0.70;;
14907;SDS011;7545;52.092;7.006;2024-03-02T10:55:09;1.80;;;0.95;;
14907;SDS011;7545;52.092;7.006;2024-03-02T10:57:51;0.98;;;0.70;;
14907;SDS011;7545;52.092;7.006;2024-03-02T11:00:18;1.95;;;0.75;;
14907;SDS011;7545;52.092;7.006;2024-03-02T11:02:56;0.80;;;0.60;;
14907;SDS011;7545;52.092;7.006;2024-03-02T11:05:27;1.77;;;0.82;;
14907;SDS011;7545;52.092;7.006;2024-03-02T11:07:57;2.03;;;1.10;;
14907;SDS011;7545;52.092;7.006;2024-03-02T11:10:26;2.30;;;1.00;;
14907;SDS011;7545;52.092;7.006;2024-03-02T11:12:56;1.20;;;0.88;;
14907;SDS011;7545;52.092;7.006;2024-03-02T11:15:27;1.55;;;1.20;;
14907;SDS011;7545;52.092;7.006;2024-03-02T11:17:52;1.35;;;0.88;;
14907;SDS011;7545;52.092;7.006;2024-03-02T11:20:19;1.98;;;0.80;;
14907;SDS011;7545;52.092;7.006;2024-03-02T11:22:45;1.50;;;0.70;;
14907;SDS011;7545;52.092;7.006;2024-03-02T11:25:27;2.83;;;1.10;;
14907;SDS011;7545;52.092;7.006;2024-03-02T11:32:59;2.90;;;0.80;;
14907;SDS011;7545;52.092;7.006;2024-03-02T11:35:35;2.35;;;1.13;;
14907;SDS011;7545;52.092;7.006;2024-03-02T11:38:02;1.05;;;0.75;;
14907;SDS011;7545;52.092;7.006;2024-03-02T11:40:29;1.30;;;0.93;;
14907;SDS011;7545;52.092;7.006;2024-03-02T11:42:56;1.77;;;0.80;;
14907;SDS011;7545;52.092;7.006;2024-03-02T11:45:22;1.38;;;0.95;;
14907;SDS011;7545;52.092;7.006;2024-03-02T11:47:53;1.65;;;1.23;;
14907;SDS011;7545;52.092;7.006;2024-03-02T11:50:33;0.93;;;0.73;;
14907;SDS011;7545;52.092;7.006;2024-03-02T11:53:02;2.75;;;0.60;;
14907;SDS011;7545;52.092;7.006;2024-03-02T11:55:36;2.20;;;0.90;;
14907;SDS011;7545;52.092;7.006;2024-03-02T11:58:03;1.70;;;0.80;;
14907;SDS011;7545;52.092;7.006;2024-03-02T12:00:29;2.88;;;0.90;;
14907;SDS011;7545;52.092;7.006;2024-03-02T12:03:16;1.08;;;0.65;;
14907;SDS011;7545;52.092;7.006;2024-03-02T12:05:40;1.00;;;0.80;;
14907;SDS011;7545;52.092;7.006;2024-03-02T12:08:07;3.35;;;0.88;;
14907;SDS011;7545;52.092;7.006;2024-03-02T12:10:34;2.13;;;0.70;;
14907;SDS011;7545;52.092;7.006;2024-03-02T12:15:31;1.40;;;0.90;;
14907;SDS011;7545;52.092;7.006;2024-03-02T12:17:58;1.80;;;0.90;;
14907;SDS011;7545;52.092;7.006;2024-03-02T12:20:25;1.35;;;0.90;;
14907;SDS011;7545;52.092;7.006;2024-03-02T12:22:54;1.02;;;0.90;;
14907;SDS011;7545;52.092;7.006;2024-03-02T12:25:22;2.83;;;1.25;;
14907;SDS011;7545;52.092;7.006;2024-03-02T12:27:49;1.75;;;0.88;;
14907;SDS011;7545;52.092;7.006;2024-03-02T12:30:16;2.40;;;0.80;;
14907;SDS011;7545;52.092;7.006;2024-03-02T12:32:43;1.92;;;0.80;;
14907;SDS011;7545;52.092;7.006;2024-03-02T12:35:12;1.27;;;0.80;;
14907;SDS011;7545;52.092;7.006;2024-03-02T12:37:45;1.55;;;0.75;;
14907;SDS011;7545;52.092;7.006;2024-03-02T12:40:12;2.35;;;0.90;;
14907;SDS011;7545;52.092;7.006;2024-03-02T12:42:39;1.45;;;0.70;;
14907;SDS011;7545;52.092;7.006;2024-03-02T12:45:07;2.53;;;0.80;;
14907;SDS011;7545;52.092;7.006;2024-03-02T12:47:33;1.50;;;0.90;;
14907;SDS011;7545;52.092;7.006;2024-03-02T12:49:59;1.13;;;0.80;;
14907;SDS011;7545;52.092;7.006;2024-03-02T12:52:25;1.10;;;0.80;;
14907;SDS011;7545;52.092;7.006;2024-03-02T12:54:51;2.38;;;0.70;;
14907;SDS011;7545;52.092;7.006;2024-03-02T12:57:18;2.35;;;0.80;;
14907;SDS011;7545;52.092;7.006;2024-03-02T12:59:46;1.67;;;0.90;;
14907;SDS011;7545;52.092;7.006;2024-03-02T13:02:19;0.98;;;0.80;;
14907;SDS011;7545;52.092;7.006;2024-03-02T13:04:44;2.17;;;0.73;;
14907;SDS011;7545;52.092;7.006;2024-03-02T13:07:22;0.98;;;0.80;;
14907;SDS011;7545;52.092;7.006;2024-03-02T13:09:52;1.08;;;0.75;;
14907;SDS011;7545;52.092;7.006;2024-03-02T13:12:20;2.92;;;1.55;;
14907;SDS011;7545;52.092;7.006;2024-03-02T13:14:50;1.15;;;0.82;;
14907;SDS011;7545;52.092;7.006;2024-03-02T13:17:19;3.60;;;1.00;;
14907;SDS011;7545;52.092;7.006;2024-03-02T13:19:55;1.75;;;0.80;;
14907;SDS011;7545;52.092;7.006;2024-03-02T13:22:22;3.03;;;0.75;;
14907;SDS011;7545;52.092;7.006;2024-03-02T13:24:48;2.60;;;0.70;;
14907;SDS011;7545;52.092;7.006;2024-03-02T13:27:18;2.83;;;0.80;;
14907;SDS011;7545;52.092;7.006;2024-03-02T13:29:47;3.67;;;0.73;;
14907;SDS011;7545;52.092;7.006;2024-03-02T13:32:18;1.33;;;0.70;;
14907;SDS011;7545;52.092;7.006;2024-03-02T13:34:48;1.35;;;0.77;;
14907;SDS011;7545;52.092;7.006;2024-03-02T13:37:14;2.25;;;1.00;;
14907;SDS011;7545;52.092;7.006;2024-03-02T13:39:40;1.88;;;0.60;;
14907;SDS011;7545;52.092;7.006;2024-03-02T13:42:07;2.25;;;0.60;;
14907;SDS011;7545;52.092;7.006;2024-03-02T13:44:38;2.92;;;0.80;;
14907;SDS011;7545;52.092;7.006;2024-03-02T13:47:04;0.82;;;0.70;;
14907;SDS011;7545;52.092;7.006;2024-03-02T13:49:30;2.08;;;0.90;;
14907;SDS011;7545;52.092;7.006;2024-03-02T13:52:01;1.80;;;1.05;;
14907;SDS011;7545;52.092;7.006;2024-03-02T13:54:30;1.60;;;0.85;;
14907;SDS011;7545;52.092;7.006;2024-03-02T13:56:56;2.15;;;0.80;;
14907;SDS011;7545;52.092;7.006;2024-03-02T13:59:23;1.50;;;1.08;;
14907;SDS011;7545;52.092;7.006;2024-03-02T14:01:49;1.02;;;0.70;;
14907;SDS011;7545;52.092;7.006;2024-03-02T14:04:15;1.30;;;0.70;;
14907;SDS011;7545;52.092;7.006;2024-03-02T14:06:42;2.72;;;0.70;;
14907;SDS011;7545;52.092;7.006;2024-03-02T14:09:08;2.38;;;0.80;;
14907;SDS011;7545;52.092;7.006;2024-03-02T14:11:34;1.05;;;0.80;;
14907;SDS011;7545;52.092;7.006;2024-03-02T14:14:00;2.33;;;0.90;;
14907;SDS011;7545;52.092;7.006;2024-03-02T14:16:26;1.35;;;0.70;;
14907;SDS011;7545;52.092;7.006;2024-03-02T14:18:52;2.00;;;0.68;;
14907;SDS011;7545;52.092;7.006;2024-03-02T14:21:18;3.30;;;1.90;;
14907;SDS011;7545;52.092;7.006;2024-03-02T14:23:43;3.17;;;2.22;;
14907;SDS011;7545;52.092;7.006;2024-03-02T14:26:09;7.38;;;4.97;;
14907;SDS011;7545;52.092;7.006;2024-03-02T14:28:34;6.03;;;4.13;;
14907;SDS011;7545;52.092;7.006;2024-03-02T14:31:00;3.33;;;1.90;;
14907;SDS011;7545;52.092;7.006;2024-03-02T14:33:26;2.80;;;1.20;;
14907;SDS011;7545;52.092;7.006;2024-03-02T14:35:52;1.00;;;0.80;;
14907;SDS011;7545;52.092;7.006;2024-03-02T14:38:18;1.52;;;0.65;;
14907;SDS011;7545;52.092;7.006;2024-03-02T14:40:44;2.15;;;0.63;;
14907;SDS011;7545;52.092;7.006;2024-03-02T14:43:09;1.90;;;0.70;;
14907;SDS011;7545;52.092;7.006;2024-03-02T14:45:35;0.75;;;0.50;;
14907;SDS011;7545;52.092;7.006;2024-03-02T14:48:01;1.48;;;0.80;;
14907;SDS011;7545;52.092;7.006;2024-03-02T14:50:28;1.10;;;0.70;;
14907;SDS011;7545;52.092;7.006;2024-03-02T14:52:53;1.00;;;0.80;;
14907;SDS011;7545;52.092;7.006;2024-03-02T14:55:22;2.30;;;0.57;;
14907;SDS011;7545;52.092;7.006;2024-03-02T14:57:48;1.05;;;0.77;;
14907;SDS011;7545;52.092;7.006;2024-03-02T15:00:14;4.28;;;1.02;;
14907;SDS011;7545;52.092;7.006;2024-03-02T15:02:40;1.30;;;0.75;;
14907;SDS011;7545;52.092;7.006;2024-03-02T15:05:06;1.48;;;0.85;;
14907;SDS011;7545;52.092;7.006;2024-03-02T15:07:32;0.98;;;0.60;;